createdAt,value
2023-02-14T00:01:46.689Z,4.08
2023-02-14T00:04:20.904Z,4.07
2023-02-14T00:06:55.512Z,4.12
2023-02-14T00:09:32.486Z,4.15
2023-02-14T00:12:07.780Z,4.16
2023-02-14T00:14:58.050Z,4.18
2023-02-14T00:17:29.688Z,4.20
2023-02-14T00:20:01.313Z,4.22
2023-02-14T00:22:33.331Z,4.19
2023-02-14T00:25:05.286Z,4.21
2023-02-14T00:27:37.958Z,4.26
2023-02-14T00:30:12.816Z,4.30
2023-02-14T00:32:44.667Z,4.32
2023-02-14T00:35:17.749Z,4.35
2023-02-14T00:37:55.134Z,4.40
2023-02-14T00:40:28.905Z,4.41
2023-02-14T00:43:04.215Z,4.42
2023-02-14T00:45:35.978Z,4.42
2023-02-14T00:48:07.737Z,4.46
2023-02-14T00:50:40.632Z,4.51
2023-02-14T00:53:13.842Z,4.54
2023-02-14T00:55:47.182Z,4.56
2023-02-14T00:58:19.925Z,4.57
2023-02-14T01:00:53.680Z,4.56
2023-02-14T01:03:29.590Z,4.50
2023-02-14T01:06:02.093Z,4.53
2023-02-14T01:08:35.312Z,4.48
2023-02-14T01:11:08.679Z,4.42
2023-02-14T01:13:41.350Z,4.44
2023-02-14T01:16:16.093Z,4.45
2023-02-14T01:18:48.479Z,4.50
2023-02-14T01:21:24.343Z,4.52
2023-02-14T01:23:58.117Z,4.52
2023-02-14T01:26:30.347Z,4.54
2023-02-14T01:29:07.643Z,4.58
2023-02-14T01:31:39.677Z,4.61
2023-02-14T01:34:11.419Z,4.56
2023-02-14T01:36:49.192Z,4.41
2023-02-14T01:39:21.072Z,4.42
2023-02-14T01:41:55.757Z,4.38
2023-02-14T01:44:33.410Z,4.36
2023-02-14T01:47:10.609Z,4.39
2023-02-14T01:49:49.599Z,4.45
2023-02-14T01:52:26.228Z,4.38
2023-02-14T01:55:02.490Z,4.20
2023-02-14T01:57:40.292Z,4.18
2023-02-14T02:00:32.058Z,4.27
2023-02-14T02:03:05.824Z,4.35
2023-02-14T02:05:40.332Z,4.29
2023-02-14T02:08:12.330Z,4.24
2023-02-14T02:10:43.999Z,4.17
2023-02-14T02:13:20.933Z,4.24
2023-02-14T02:16:17.546Z,4.34
2023-02-14T02:19:08.744Z,4.43
2023-02-14T02:22:11.284Z,4.50
2023-02-14T02:25:24.459Z,4.57
2023-02-14T02:27:58.744Z,4.60
2023-02-14T02:30:50.516Z,4.63
2023-02-14T02:33:40.956Z,4.65
2023-02-14T02:36:12.897Z,4.66
2023-02-14T02:39:23.043Z,4.61
2023-02-14T02:42:04.102Z,4.48
2023-02-14T02:44:58.008Z,4.53
2023-02-14T02:47:44.644Z,4.52
2023-02-14T02:50:46.748Z,4.45
2023-02-14T02:53:19.428Z,4.40
2023-02-14T02:56:30.568Z,4.24
2023-02-14T02:59:18.828Z,4.22
2023-02-14T03:02:26.535Z,4.24
2023-02-14T03:05:04.463Z,4.28
2023-02-14T03:07:41.665Z,4.33
2023-02-14T03:10:30.194Z,4.42
2023-02-14T03:13:14.402Z,4.41
2023-02-14T03:15:54.124Z,4.22
2023-02-14T03:19:07.223Z,4.07
2023-02-14T03:21:55.920Z,4.09
2023-02-14T03:24:37.866Z,4.18
2023-02-14T03:27:29.965Z,4.14
2023-02-14T03:30:14.265Z,4.08
2023-02-14T03:32:58.374Z,3.99
2023-02-14T03:35:39.178Z,3.95
2023-02-14T03:38:29.480Z,4.04
2023-02-14T03:41:05.277Z,4.15
2023-02-14T03:43:43.859Z,4.16
2023-02-14T03:46:45.478Z,4.23
2023-02-14T03:49:26.894Z,4.32
2023-02-14T03:52:02.857Z,4.37
2023-02-14T03:54:35.714Z,4.42
2023-02-14T03:57:45.980Z,4.44
2023-02-14T04:00:19.843Z,4.38
2023-02-14T04:02:59.330Z,4.40
2023-02-14T04:05:31.539Z,4.43
2023-02-14T04:08:03.195Z,4.45
2023-02-14T04:10:34.929Z,4.50
2023-02-14T04:13:08.721Z,4.47
2023-02-14T04:15:40.406Z,4.49
2023-02-14T04:18:34.734Z,4.50
2023-02-14T04:21:11.372Z,4.44
2023-02-14T04:23:43.316Z,4.38
2023-02-14T04:26:15.070Z,4.23
2023-02-14T04:28:49.416Z,4.17
2023-02-14T04:31:21.252Z,4.24
2023-02-14T04:33:55.069Z,4.33
2023-02-14T04:36:26.841Z,4.37
2023-02-14T04:38:58.630Z,4.42
2023-02-14T04:41:30.523Z,4.42
2023-02-14T04:44:05.692Z,4.42
2023-02-14T04:46:40.453Z,4.46
2023-02-14T04:49:12.187Z,4.49
2023-02-14T04:51:44.580Z,4.51
2023-02-14T04:54:23.754Z,4.49
2023-02-14T04:56:58.458Z,4.42
2023-02-14T04:59:30.039Z,4.35
2023-02-14T05:02:01.777Z,4.35
2023-02-14T05:04:33.555Z,4.22
2023-02-14T05:07:06.284Z,4.14
2023-02-14T05:09:40.357Z,4.22
2023-02-14T05:12:12.047Z,4.34
2023-02-14T05:14:43.782Z,4.27
2023-02-14T05:17:15.520Z,4.28
2023-02-14T05:19:47.227Z,4.34
2023-02-14T05:22:23.153Z,4.39
2023-02-14T05:25:20.400Z,4.46
2023-02-14T05:27:52.053Z,4.50
2023-02-14T05:30:28.132Z,4.50
2023-02-14T05:33:02.180Z,4.51
2023-02-14T05:35:37.024Z,4.47
2023-02-14T05:38:15.469Z,4.47
2023-02-14T05:40:47.255Z,4.50
2023-02-14T05:43:18.995Z,4.50
2023-02-14T05:45:50.919Z,4.54
2023-02-14T05:48:23.001Z,4.51
2023-02-14T05:50:54.845Z,4.52
2023-02-14T05:53:26.505Z,4.53
2023-02-14T05:55:58.229Z,4.57
2023-02-14T05:58:33.239Z,4.56
2023-02-14T06:01:05.398Z,4.60
2023-02-14T06:03:37.105Z,4.60
2023-02-14T06:06:11.875Z,4.56
2023-02-14T06:08:43.632Z,4.55
2023-02-14T06:11:15.346Z,4.54
2023-02-14T06:13:47.354Z,4.54
2023-02-14T06:16:21.991Z,4.56
2023-02-14T06:18:53.831Z,4.54
2023-02-14T06:21:25.669Z,4.58
2023-02-14T06:24:00.470Z,4.60
2023-02-14T06:26:32.959Z,4.61
2023-02-14T06:29:07.314Z,4.59
2023-02-14T06:31:40.839Z,4.60
2023-02-14T06:34:13.946Z,4.58
2023-02-14T06:36:46.808Z,4.57
2023-02-14T06:39:21.616Z,4.57
2023-02-14T06:41:53.182Z,4.56
2023-02-14T06:44:24.877Z,4.57
2023-02-14T06:47:01.891Z,4.57
2023-02-14T06:49:33.573Z,4.57
2023-02-14T06:52:06.513Z,4.58
2023-02-14T06:54:44.533Z,4.60
2023-02-14T06:57:16.267Z,4.58
2023-02-14T06:59:48.096Z,4.56
2023-02-14T07:02:25.068Z,4.57
2023-02-14T07:04:56.938Z,4.60
2023-02-14T07:07:31.002Z,4.62
2023-02-14T07:10:04.405Z,4.62
2023-02-14T07:12:36.623Z,4.58
2023-02-14T07:15:11.077Z,4.63
2023-02-14T07:17:43.010Z,4.67
2023-02-14T07:20:15.830Z,4.69
2023-02-14T07:22:47.747Z,4.71
2023-02-14T07:25:20.648Z,4.71
2023-02-14T07:27:52.314Z,4.73
2023-02-14T07:30:24.124Z,4.76
2023-02-14T07:32:57.489Z,4.77
2023-02-14T07:35:29.196Z,4.76
2023-02-14T07:38:03.455Z,4.79
2023-02-14T07:40:35.166Z,4.78
2023-02-14T07:43:10.204Z,4.81
2023-02-14T07:45:42.088Z,4.84
2023-02-14T07:48:16.451Z,4.84
2023-02-14T07:50:48.743Z,4.87
2023-02-14T07:53:24.554Z,4.91
2023-02-14T07:55:59.088Z,4.95
2023-02-14T07:58:30.809Z,4.94
2023-02-14T08:01:02.724Z,4.97
2023-02-14T08:03:35.087Z,5.00
2023-02-14T08:06:06.844Z,5.02
2023-02-14T08:08:38.578Z,5.15
2023-02-14T08:11:11.354Z,5.23
2023-02-14T08:13:43.020Z,5.24
2023-02-14T08:16:17.241Z,5.22
2023-02-14T08:18:50.601Z,5.21
2023-02-14T08:21:22.356Z,5.18
2023-02-14T08:23:55.085Z,5.18
2023-02-14T08:26:28.787Z,5.24
2023-02-14T08:29:01.989Z,5.20
2023-02-14T08:31:37.652Z,5.20
2023-02-14T08:34:10.400Z,5.20
2023-02-14T08:36:43.347Z,5.24
2023-02-14T08:39:15.493Z,5.29
2023-02-14T08:41:50.009Z,5.32
2023-02-14T08:44:24.661Z,5.33
2023-02-14T08:46:56.422Z,5.35
2023-02-14T08:49:28.319Z,5.39
2023-02-14T08:52:01.954Z,5.40
2023-02-14T08:54:35.805Z,5.43
2023-02-14T08:57:07.544Z,5.42
2023-02-14T08:59:39.217Z,5.43
2023-02-14T09:02:17.036Z,5.44
2023-02-14T09:04:48.738Z,5.48
2023-02-14T09:07:20.796Z,5.57
2023-02-14T09:09:52.485Z,5.54
2023-02-14T09:12:26.561Z,5.61
2023-02-14T09:14:58.405Z,5.63
2023-02-14T09:17:30.688Z,5.66
2023-02-14T09:20:02.396Z,5.71
2023-02-14T09:22:34.491Z,5.77
2023-02-14T09:25:07.616Z,5.83
2023-02-14T09:27:42.465Z,5.87
2023-02-14T09:30:17.470Z,5.89
2023-02-14T09:32:52.015Z,5.90
2023-02-14T09:35:47.033Z,5.93
2023-02-14T09:38:23.573Z,5.98
2023-02-14T09:40:57.867Z,6.01
2023-02-14T09:43:55.694Z,6.05
2023-02-14T09:46:31.051Z,6.04
2023-02-14T09:49:03.095Z,6.07
2023-02-14T09:51:36.076Z,6.12
2023-02-14T09:54:20.825Z,6.14
2023-02-14T09:57:23.115Z,6.20
2023-02-14T10:00:18.980Z,6.27
2023-02-14T10:03:05.842Z,6.31
2023-02-14T10:05:48.770Z,6.35
2023-02-14T10:08:45.096Z,6.36
2023-02-14T10:11:23.089Z,6.35
2023-02-14T10:14:05.281Z,6.36
2023-02-14T10:16:43.123Z,6.39
2023-02-14T10:19:28.280Z,6.43
2023-02-14T10:22:02.332Z,6.37
2023-02-14T10:24:40.931Z,6.39
2023-02-14T10:27:24.382Z,6.45
2023-02-14T10:29:56.389Z,6.52
2023-02-14T10:32:48.081Z,6.54
2023-02-14T10:35:22.675Z,6.49
2023-02-14T10:38:17.646Z,6.39
2023-02-14T10:41:13.721Z,6.39
2023-02-14T10:44:03.620Z,6.31
2023-02-14T10:47:04.143Z,6.29
2023-02-14T10:49:59.240Z,6.30
2023-02-14T10:52:59.021Z,6.36
2023-02-14T10:55:36.422Z,6.37
2023-02-14T10:58:13.726Z,6.35
2023-02-14T11:01:02.446Z,6.35
2023-02-14T11:03:37.153Z,6.42
2023-02-14T11:06:10.463Z,6.52
2023-02-14T11:08:42.384Z,6.58
2023-02-14T11:11:21.370Z,6.63
2023-02-14T11:13:53.451Z,6.60
2023-02-14T11:16:37.408Z,6.61
2023-02-14T11:19:15.074Z,6.69
2023-02-14T11:21:50.973Z,6.81
2023-02-14T11:24:33.254Z,6.85
2023-02-14T11:27:18.484Z,6.76
2023-02-14T11:29:53.592Z,6.81
2023-02-14T11:32:28.633Z,6.81
2023-02-14T11:35:05.036Z,6.69
2023-02-14T11:37:49.037Z,6.71
2023-02-14T11:40:36.839Z,6.81
2023-02-14T11:43:14.184Z,6.90
2023-02-14T11:45:48.818Z,6.98
2023-02-14T11:48:37.867Z,7.03
2023-02-14T11:51:18.780Z,7.05
2023-02-14T11:53:55.089Z,7.10
2023-02-14T11:56:48.082Z,6.98
2023-02-14T11:59:25.804Z,7.03
2023-02-14T12:02:01.533Z,7.09
2023-02-14T12:04:46.633Z,7.04
2023-02-14T12:07:25.128Z,7.01
2023-02-14T12:10:27.725Z,7.01
2023-02-14T12:13:11.459Z,7.02
2023-02-14T12:15:43.102Z,6.92
2023-02-14T12:18:52.729Z,6.98
2023-02-14T12:21:30.871Z,6.94
2023-02-14T12:24:20.954Z,6.96
2023-02-14T12:27:13.463Z,7.04
2023-02-14T12:30:00.008Z,7.06
2023-02-14T12:32:32.616Z,7.12
2023-02-14T12:35:13.413Z,7.20
2023-02-14T12:38:03.813Z,7.27
2023-02-14T12:41:05.749Z,7.06
2023-02-14T12:44:12.466Z,6.96
2023-02-14T12:47:07.363Z,6.97
2023-02-14T12:49:57.776Z,6.97
2023-02-14T12:52:51.098Z,6.99
2023-02-14T12:56:07.597Z,6.89
2023-02-14T12:58:45.146Z,6.68
2023-02-14T13:01:24.780Z,6.72
2023-02-14T13:04:34.025Z,6.71
2023-02-14T13:07:14.964Z,6.84
2023-02-14T13:10:31.581Z,6.91
2023-02-14T13:13:07.121Z,7.01
2023-02-14T13:16:09.872Z,7.04
2023-02-14T13:19:02.287Z,6.98
2023-02-14T13:21:37.487Z,7.08
2023-02-14T13:24:21.995Z,7.13
2023-02-14T13:27:00.445Z,7.20
2023-02-14T13:29:43.194Z,7.22
2023-02-14T13:32:21.355Z,7.17
2023-02-14T13:35:00.016Z,7.17
2023-02-14T13:37:33.282Z,7.01
2023-02-14T13:40:17.387Z,7.00
2023-02-14T13:42:49.878Z,6.97
2023-02-14T13:45:39.450Z,6.92
2023-02-14T13:48:22.152Z,6.83
2023-02-14T13:51:05.729Z,6.79
2023-02-14T13:53:44.817Z,6.85
2023-02-14T13:56:16.455Z,6.93
2023-02-14T13:58:59.833Z,6.96
2023-02-14T14:01:41.833Z,7.05
2023-02-14T14:04:30.381Z,7.02
2023-02-14T14:07:05.097Z,7.01
2023-02-14T14:09:43.287Z,6.96
2023-02-14T14:12:27.186Z,6.98
2023-02-14T14:15:05.028Z,7.04
2023-02-14T14:17:46.465Z,6.99
2023-02-14T14:20:20.873Z,6.88
2023-02-14T14:22:58.610Z,6.88
2023-02-14T14:25:42.037Z,6.96
2023-02-14T14:28:20.696Z,7.04
2023-02-14T14:30:55.569Z,7.13
2023-02-14T14:33:35.096Z,7.24
2023-02-14T14:36:10.321Z,7.26
2023-02-14T14:38:53.536Z,7.28
2023-02-14T14:41:31.262Z,7.34
2023-02-14T14:44:05.022Z,7.37
2023-02-14T14:46:41.315Z,7.29
2023-02-14T14:49:16.402Z,7.25
2023-02-14T14:51:48.686Z,7.17
2023-02-14T14:54:25.037Z,7.14
2023-02-14T14:57:01.714Z,7.08
2023-02-14T14:59:40.921Z,7.01
2023-02-14T15:02:27.602Z,6.92
2023-02-14T15:05:32.719Z,6.77
2023-02-14T15:08:30.841Z,6.69
2023-02-14T15:11:47.139Z,6.70
2023-02-14T15:14:24.498Z,6.60
2023-02-14T15:17:06.051Z,6.58
2023-02-14T15:19:43.502Z,6.57
2023-02-14T15:22:26.223Z,6.61
2023-02-14T15:24:58.239Z,6.66
2023-02-14T15:27:30.780Z,6.59
2023-02-14T15:30:09.822Z,6.47
2023-02-14T15:32:44.689Z,6.47
2023-02-14T15:35:17.634Z,6.43
2023-02-14T15:37:56.850Z,6.42
2023-02-14T15:40:35.960Z,6.46
2023-02-14T15:43:23.997Z,6.45
2023-02-14T15:46:03.039Z,6.40
2023-02-14T15:48:37.475Z,6.38
2023-02-14T15:51:22.776Z,6.37
2023-02-14T15:54:25.364Z,6.32
2023-02-14T15:56:59.769Z,6.25
2023-02-14T15:59:41.414Z,6.18
2023-02-14T16:02:36.380Z,6.13
2023-02-14T16:05:17.808Z,6.09
2023-02-14T16:08:22.023Z,6.02
2023-02-14T16:11:05.112Z,6.02
2023-02-14T16:13:42.114Z,6.00
2023-02-14T16:16:15.028Z,5.96
2023-02-14T16:18:49.678Z,5.90
2023-02-14T16:21:33.540Z,5.88
2023-02-14T16:24:14.922Z,5.86
2023-02-14T16:26:53.608Z,5.84
2023-02-14T16:29:37.244Z,5.83
2023-02-14T16:32:36.317Z,5.84
2023-02-14T16:35:31.142Z,5.83
2023-02-14T16:38:15.782Z,5.78
2023-02-14T16:40:56.123Z,5.75
2023-02-14T16:43:36.166Z,5.77
2023-02-14T16:46:15.319Z,5.83
2023-02-14T16:48:52.054Z,5.84
2023-02-14T16:51:28.374Z,5.84
2023-02-14T16:54:04.499Z,5.83
2023-02-14T16:56:49.383Z,5.77
2023-02-14T16:59:26.099Z,5.76
2023-02-14T17:01:58.928Z,5.75
2023-02-14T17:04:30.640Z,5.76
2023-02-14T17:07:05.949Z,5.80
2023-02-14T17:09:42.828Z,5.83
2023-02-14T17:12:41.774Z,5.84
2023-02-14T17:15:19.223Z,5.84
2023-02-14T17:17:55.409Z,5.77
2023-02-14T17:20:36.865Z,5.78
2023-02-14T17:23:09.008Z,5.83
2023-02-14T17:25:50.523Z,5.81
2023-02-14T17:28:26.586Z,5.80
2023-02-14T17:31:01.149Z,5.81
2023-02-14T17:33:36.245Z,5.80
2023-02-14T17:36:12.094Z,5.79
2023-02-14T17:38:43.917Z,5.80
2023-02-14T17:41:15.652Z,5.77
2023-02-14T17:43:49.588Z,5.75
2023-02-14T17:46:24.580Z,5.74
2023-02-14T17:48:57.094Z,5.75
2023-02-14T17:51:30.193Z,5.75
2023-02-14T17:54:01.947Z,5.76
2023-02-14T17:56:35.676Z,5.75
2023-02-14T17:59:07.384Z,5.76
2023-02-14T18:01:39.181Z,5.67
2023-02-14T18:04:10.986Z,5.63
2023-02-14T18:06:43.164Z,5.58
2023-02-14T18:09:18.722Z,5.55
2023-02-14T18:11:50.597Z,5.54
2023-02-14T18:14:22.638Z,5.52
2023-02-14T18:16:54.386Z,5.44
2023-02-14T18:19:26.131Z,5.53
2023-02-14T18:22:00.579Z,5.78
2023-02-14T18:24:32.524Z,5.64
2023-02-14T18:27:06.096Z,5.57
2023-02-14T18:29:39.382Z,5.50
2023-02-14T18:32:12.207Z,5.45
2023-02-14T18:34:43.923Z,5.42
2023-02-14T18:37:17.192Z,5.44
2023-02-14T18:39:48.951Z,5.45
2023-02-14T18:42:24.851Z,5.48
2023-02-14T18:44:56.897Z,5.45
2023-02-14T18:47:28.626Z,5.41
2023-02-14T18:50:06.708Z,5.38
2023-02-14T18:52:39.006Z,5.33
2023-02-14T18:55:11.125Z,5.31
2023-02-14T18:57:42.839Z,5.32
2023-02-14T19:00:19.453Z,5.28
2023-02-14T19:02:54.373Z,5.23
2023-02-14T19:05:26.286Z,5.16
2023-02-14T19:07:59.057Z,5.16
2023-02-14T19:10:31.235Z,5.15
2023-02-14T19:13:03.325Z,5.14
2023-02-14T19:15:35.018Z,5.13
2023-02-14T19:18:06.835Z,5.14
2023-02-14T19:20:38.563Z,5.08
2023-02-14T19:23:10.198Z,5.07
2023-02-14T19:25:43.143Z,5.07
2023-02-14T19:28:21.001Z,5.09
2023-02-14T19:30:53.259Z,5.10
2023-02-14T19:33:25.728Z,5.05
2023-02-14T19:36:07.405Z,5.05
2023-02-14T19:38:46.798Z,4.99
2023-02-14T19:41:31.658Z,4.94
2023-02-14T19:44:06.660Z,4.92
2023-02-14T19:46:38.474Z,4.95
2023-02-14T19:49:16.341Z,4.94
2023-02-14T19:51:49.454Z,4.98
2023-02-14T19:54:28.184Z,5.02
2023-02-14T19:57:00.004Z,5.02
2023-02-14T19:59:32.538Z,4.99
2023-02-14T20:02:12.605Z,4.91
2023-02-14T20:04:44.620Z,4.86
2023-02-14T20:07:19.299Z,4.84
2023-02-14T20:09:50.992Z,4.81
2023-02-14T20:12:22.746Z,4.80
2023-02-14T20:14:54.968Z,4.77
2023-02-14T20:17:26.825Z,4.76
2023-02-14T20:20:01.298Z,4.75
2023-02-14T20:22:38.191Z,4.73
2023-02-14T20:25:11.205Z,4.74
2023-02-14T20:27:43.022Z,4.72
2023-02-14T20:30:20.771Z,4.69
2023-02-14T20:32:55.510Z,4.68
2023-02-14T20:35:27.570Z,4.68
2023-02-14T20:37:59.278Z,4.69
2023-02-14T20:40:43.464Z,4.72
2023-02-14T20:43:15.998Z,4.75
2023-02-14T20:45:48.225Z,4.73
2023-02-14T20:48:20.016Z,4.75
2023-02-14T20:50:51.799Z,4.71
2023-02-14T20:53:24.723Z,4.65
2023-02-14T20:55:59.594Z,4.68
2023-02-14T20:58:39.693Z,4.68
2023-02-14T21:01:23.415Z,4.70
2023-02-14T21:03:55.522Z,4.68
2023-02-14T21:06:30.446Z,4.69
2023-02-14T21:09:05.209Z,4.70
2023-02-14T21:11:36.903Z,4.63
2023-02-14T21:14:12.147Z,4.66
2023-02-14T21:16:44.638Z,4.62
2023-02-14T21:19:17.639Z,4.64
2023-02-14T21:21:49.376Z,4.66
2023-02-14T21:24:21.229Z,4.65
2023-02-14T21:26:52.920Z,4.66
2023-02-14T21:29:25.669Z,4.67
2023-02-14T21:31:57.652Z,4.67
2023-02-14T21:34:29.573Z,4.71
2023-02-14T21:37:01.332Z,4.71
2023-02-14T21:39:35.741Z,4.68
2023-02-14T21:42:11.981Z,4.66
2023-02-14T21:45:03.300Z,4.69
2023-02-14T21:47:44.864Z,4.68
2023-02-14T21:50:31.690Z,4.70
2023-02-14T21:53:03.729Z,4.74
2023-02-14T21:55:38.493Z,4.76
2023-02-14T21:58:10.064Z,4.73
2023-02-14T22:00:48.742Z,4.76
2023-02-14T22:03:27.218Z,4.73
2023-02-14T22:06:07.015Z,4.75
2023-02-14T22:08:42.645Z,4.75
2023-02-14T22:11:18.607Z,4.75
2023-02-14T22:13:50.266Z,4.75
2023-02-14T22:16:23.687Z,4.71
2023-02-14T22:18:55.540Z,4.70
2023-02-14T22:21:33.463Z,4.67
2023-02-14T22:24:08.048Z,4.69
2023-02-14T22:26:43.063Z,4.68
2023-02-14T22:29:17.959Z,4.71
2023-02-14T22:31:49.574Z,4.76
2023-02-14T22:34:21.896Z,4.78
2023-02-14T22:36:53.556Z,4.80
2023-02-14T22:39:50.205Z,4.85
2023-02-14T22:42:21.778Z,4.85
2023-02-14T22:44:53.413Z,4.84
2023-02-14T22:47:25.237Z,4.83
2023-02-14T22:49:56.836Z,4.80
2023-02-14T22:52:37.241Z,4.77
2023-02-14T22:55:08.727Z,4.71
2023-02-14T22:57:40.271Z,4.69
2023-02-14T23:00:14.610Z,4.67
2023-02-14T23:02:46.683Z,4.71
2023-02-14T23:05:21.559Z,4.74
2023-02-14T23:07:53.543Z,4.80
2023-02-14T23:10:25.115Z,4.79
2023-02-14T23:13:19.052Z,4.78
2023-02-14T23:16:12.385Z,4.75
2023-02-14T23:19:02.743Z,4.67
2023-02-14T23:21:52.899Z,4.63
2023-02-14T23:24:24.636Z,4.58
2023-02-14T23:26:56.334Z,4.62
2023-02-14T23:29:32.301Z,4.64
2023-02-14T23:32:07.580Z,4.59
2023-02-14T23:34:40.631Z,4.56
2023-02-14T23:37:12.555Z,4.56
2023-02-14T23:39:44.178Z,4.54
2023-02-14T23:42:16.127Z,4.56
2023-02-14T23:44:50.812Z,4.63
2023-02-14T23:47:22.502Z,4.64
2023-02-14T23:49:54.167Z,4.67
2023-02-14T23:52:28.538Z,4.69
2023-02-14T23:55:00.219Z,4.71
2023-02-14T23:57:31.773Z,4.75
